Time;durP1;ratioP1;P1;durP2;ratioP2;P2;SDS_P1;SDS_P2;PMS_P1;PMS_P2;Temp;Humidity;BMP_temperature;BMP_pressure;BME280_temperature;BME280_humidity;BME280_pressure;Samples;Min_cycle;Max_cycle;Signal;HPM_P1;HPM_P2
2023/03/02 05:07:52;;;;;;;6.03;4.93;;;;;;;4.37;100.00;101978.25;5065373;28;20957;-87
2023/03/02 05:10:19;;;;;;;33.13;6.32;;;;;;;4.47;100.00;101969.69;5046322;28;20033;-86
2023/03/02 05:12:54;;;;;;;9.30;5.03;;;;;;;4.62;99.91;101979.88;5048231;28;20104;-88
2023/03/02 05:15:45;;;;;;;10.45;7.30;;;;;;;4.90;97.02;101976.38;5030403;28;20033;-83
2023/03/02 05:18:11;;;;;;;13.13;7.93;;;;;;;4.78;95.07;101945.66;5078802;28;20087;-80
2023/03/02 05:20:37;;;;;;;16.40;7.78;;;;;;;5.11;94.45;101979.69;5061700;28;20033;-87
2023/03/02 05:23:04;;;;;;;17.63;7.30;;;;;;;5.22;92.74;101974.53;5049199;28;20074;-84
2023/03/02 05:25:30;;;;;;;9.07;6.18;;;;;;;5.23;91.37;101964.25;5048331;28;20020;-83
2023/03/02 05:27:56;;;;;;;11.80;5.55;;;;;;;5.26;90.82;101966.81;5051498;28;20029;-86
2023/03/02 05:30:21;;;;;;;19.80;9.25;;;;;;;5.22;90.95;101949.72;5046311;28;20033;-85
2023/03/02 05:32:47;;;;;;;20.10;8.55;;;;;;;5.36;91.08;101963.31;5029841;28;20033;-84
2023/03/02 05:35:13;;;;;;;12.80;6.05;;;;;;;5.38;90.37;101969.28;5043356;28;20095;-94
2023/03/02 05:37:41;;;;;;;7.85;4.78;;;;;;;5.22;88.73;101942.03;5046626;28;20037;-88
2023/03/02 05:40:08;;;;;;;12.90;5.35;;;;;;;5.45;88.79;101981.22;5045073;28;20384;-94
2023/03/02 05:42:34;;;;;;;18.63;8.05;;;;;;;5.51;88.68;101989.78;5049047;28;20029;-92
2023/03/02 05:45:01;;;;;;;9.10;6.35;;;;;;;5.38;88.44;101977.00;5036492;28;21071;-88
2023/03/02 05:47:26;;;;;;;17.42;9.57;;;;;;;5.50;88.35;101988.03;5034988;28;20094;-92
2023/03/02 05:49:52;;;;;;;21.17;10.25;;;;;;;5.44;87.84;101994.94;5049949;28;20029;-90
2023/03/02 05:52:17;;;;;;;9.90;7.60;;;;;;;5.17;88.32;101954.03;5049273;28;20017;-89
2023/03/02 05:54:43;;;;;;;13.20;5.90;;;;;;;5.33;87.58;101978.75;5032290;28;20031;-86
2023/03/02 05:57:08;;;;;;;9.48;7.75;;;;;;;5.51;87.54;102000.03;5050077;28;20481;-90
2023/03/02 05:59:33;;;;;;;8.88;6.57;;;;;;;5.51;87.56;102000.03;5062122;28;20036;-85
2023/03/02 06:01:59;;;;;;;16.75;8.00;;;;;;;5.44;87.00;101989.78;5045903;28;20033;-87
2023/03/02 06:04:25;;;;;;;14.02;8.23;;;;;;;5.56;86.91;102003.41;5029263;28;20056;-92
2023/03/02 06:06:50;;;;;;;9.32;6.15;;;;;;;5.44;86.25;101982.09;5001640;28;20049;-92
2023/03/02 06:09:16;;;;;;;10.63;6.88;;;;;;;5.60;86.18;102002.53;5006030;28;20393;-89
2023/03/02 06:11:41;;;;;;;17.45;7.10;;;;;;;5.55;86.57;102002.56;4988056;28;20030;-89
2023/03/02 06:14:07;;;;;;;9.93;6.90;;;;;;;5.58;86.66;102006.81;4991451;28;20014;-88
2023/03/02 06:16:32;;;;;;;13.98;8.32;;;;;;;5.53;87.27;102012.00;4989721;28;20037;-84
2023/03/02 06:18:58;;;;;;;10.40;7.72;;;;;;;5.37;87.61;101990.69;4993037;28;20027;-86
2023/03/02 06:21:23;;;;;;;4.40;3.67;;;;;;;5.51;86.84;102012.88;4981878;28;20051;-84
2023/03/02 06:23:49;;;;;;;11.73;5.22;;;;;;;5.52;87.64;102014.56;4956834;28;20031;-91
2023/03/02 06:26:15;;;;;;;12.63;6.55;;;;;;;5.48;87.77;102001.75;4957444;28;20046;-88
2023/03/02 06:28:41;;;;;;;16.67;9.20;;;;;;;5.47;86.92;102009.44;4976265;28;20034;-86
2023/03/02 06:31:08;;;;;;;17.58;8.88;;;;;;;5.47;87.28;102014.59;4979954;28;20504;-93
2023/03/02 06:33:34;;;;;;;10.75;6.53;;;;;;;5.33;87.46;101983.88;4956591;28;20031;-88
2023/03/02 06:35:59;;;;;;;11.10;7.43;;;;;;;5.53;87.37;102013.72;4977954;28;20038;-84
2023/03/02 06:38:25;;;;;;;19.23;9.80;;;;;;;5.54;87.49;102010.28;4946697;28;20037;-91
2023/03/02 06:40:50;;;;;;;15.77;8.68;;;;;;;5.58;87.06;102010.25;4992488;28;20415;-83
2023/03/02 06:43:16;;;;;;;12.15;7.85;;;;;;;5.61;87.60;102012.81;4969220;28;20034;-84
2023/03/02 06:45:41;;;;;;;12.63;8.55;;;;;;;5.62;86.94;102023.94;4963647;28;20038;-84
2023/03/02 06:48:07;;;;;;;15.18;8.43;;;;;;;5.72;86.40;102012.72;4973056;28;20542;-82
2023/03/02 06:50:32;;;;;;;16.58;8.02;;;;;;;5.73;86.29;102017.00;4989670;28;20035;-93
2023/03/02 06:52:58;;;;;;;13.07;6.80;;;;;;;5.68;84.99;102011.88;4966413;28;20089;-88
2023/03/02 06:55:24;;;;;;;14.38;7.28;;;;;;;5.68;85.58;102003.31;4972335;28;20022;-88
2023/03/02 06:57:49;;;;;;;28.55;10.05;;;;;;;5.82;86.58;102006.66;4976268;28;20030;-83
2023/03/02 07:00:23;;;;;;;13.95;6.15;;;;;;;5.90;84.55;102015.22;4995493;28;20038;-91
2023/03/02 07:02:49;;;;;;;18.00;7.72;;;;;;;5.86;84.56;102003.19;4979474;28;20030;-92
2023/03/02 07:05:15;;;;;;;13.30;8.25;;;;;;;6.03;85.35;102016.81;4993127;28;20035;-90
2023/03/02 07:07:40;;;;;;;14.95;7.50;;;;;;;6.08;83.91;102021.03;4943866;28;20439;-92
2023/03/02 07:10:07;;;;;;;12.77;6.38;;;;;;;5.95;83.58;102016.00;4957998;28;20084;-91
2023/03/02 07:12:32;;;;;;;10.93;7.53;;;;;;;5.86;84.12;102012.63;4975086;28;20034;-92
2023/03/02 07:14:58;;;;;;;8.60;5.78;;;;;;;6.00;84.11;102028.84;4956939;28;20103;-92
2023/03/02 07:17:23;;;;;;;16.58;9.38;;;;;;;5.74;84.16;101993.03;4981840;28;20036;-92
2023/03/02 07:19:49;;;;;;;10.43;5.80;;;;;;;6.02;84.00;102034.81;4990603;28;20103;-87
2023/03/02 07:22:14;;;;;;;22.83;6.07;;;;;;;5.91;83.39;102022.06;4959047;28;20027;-91
2023/03/02 07:24:40;;;;;;;12.35;7.65;;;;;;;5.86;84.03;102017.75;4956670;28;20504;-94
2023/03/02 07:27:05;;;;;;;20.80;7.93;;;;;;;5.91;83.86;102032.31;4986155;28;20034;-92
2023/03/02 07:29:30;;;;;;;10.85;7.03;;;;;;;5.86;83.74;102036.59;4975573;28;20034;-89
2023/03/02 07:31:59;;;;;;;24.55;6.55;;;;;;;5.82;83.51;102027.22;4991297;28;20034;-91
2023/03/02 07:34:25;;;;;;;10.45;8.05;;;;;;;5.81;84.09;102020.38;4964765;28;20041;-83
2023/03/02 07:36:51;;;;;;;10.02;7.43;;;;;;;5.80;85.02;102034.09;4968032;28;20047;-80
2023/03/02 07:39:16;;;;;;;7.75;5.75;;;;;;;5.88;83.83;102028.88;4978192;28;20161;-80
2023/03/02 07:41:42;;;;;;;14.70;7.45;;;;;;;5.91;83.92;102037.47;4977462;28;20035;-80
2023/03/02 07:44:07;;;;;;;16.83;11.30;;;;;;;5.82;83.62;102031.50;4986809;28;20480;-83
2023/03/02 07:46:33;;;;;;;15.40;8.68;;;;;;;5.81;83.70;102040.06;4972417;28;20035;-94
2023/03/02 07:48:58;;;;;;;8.38;7.30;;;;;;;5.75;83.07;102026.41;4980228;28;20436;-91
2023/03/02 07:51:24;;;;;;;14.25;6.03;;;;;;;5.80;83.18;102035.78;4947978;28;20031;-92
2023/03/02 07:53:49;;;;;;;10.23;6.68;;;;;;;5.85;83.96;102047.72;4991966;28;20440;-86
2023/03/02 07:56:15;;;;;;;12.70;7.22;;;;;;;5.88;84.99;102047.69;4974090;28;20435;-93
2023/03/02 07:58:40;;;;;;;19.75;6.40;;;;;;;5.99;83.41;102035.66;4961545;28;20033;-89
2023/03/02 08:01:06;;;;;;;11.15;7.38;;;;;;;5.99;82.22;102040.81;4950762;28;20035;-82
2023/03/02 08:03:32;;;;;;;9.65;5.95;;;;;;;5.83;82.97;102028.06;4972759;28;20117;-87
2023/03/02 08:05:57;;;;;;;13.13;8.00;;;;;;;5.81;82.55;102033.22;4959266;28;20046;-83
2023/03/02 08:08:22;;;;;;;8.02;6.35;;;;;;;5.67;82.33;102040.13;4973900;28;20527;-85
2023/03/02 08:10:48;;;;;;;11.27;7.18;;;;;;;5.72;83.76;102040.97;4971679;28;20098;-85
2023/03/02 08:13:13;;;;;;;14.57;8.13;;;;;;;5.63;83.02;102035.91;4978953;28;20030;-88
2023/03/02 08:15:39;;;;;;;11.93;6.57;;;;;;;5.58;82.93;102028.22;4957990;28;20037;-87
2023/03/02 08:18:04;;;;;;;13.93;6.95;;;;;;;5.53;82.96;102029.13;4958066;28;20061;-87
2023/03/02 08:20:30;;;;;;;11.55;6.25;;;;;;;5.59;83.00;102034.19;5003470;28;20061;-84
2023/03/02 08:22:55;;;;;;;10.20;6.93;;;;;;;5.64;82.14;102050.44;4965018;28;20030;-84
2023/03/02 08:25:21;;;;;;;18.40;9.70;;;;;;;5.48;82.06;102042.81;4990829;28;20049;-92
2023/03/02 08:27:46;;;;;;;11.18;7.45;;;;;;;5.54;82.55;102041.09;4972615;28;20049;-91
2023/03/02 08:30:12;;;;;;;13.90;9.20;;;;;;;5.56;82.90;102049.63;4954778;28;20041;-91
2023/03/02 08:32:38;;;;;;;4.18;3.83;;;;;;;5.50;82.33;102050.50;4970451;28;20439;-89
2023/03/02 08:35:04;;;;;;;12.00;7.40;;;;;;;5.48;80.91;102055.66;4962147;28;20031;-93
2023/03/02 08:37:29;;;;;;;13.43;7.63;;;;;;;5.54;80.83;102046.22;4956882;28;20030;-84
2023/03/02 08:39:55;;;;;;;10.80;7.30;;;;;;;5.59;80.99;102068.41;4958043;28;20030;-93
2023/03/02 08:42:20;;;;;;;9.60;7.82;;;;;;;5.46;81.13;102059.94;4970570;28;20034;-88
2023/03/02 08:44:46;;;;;;;15.00;10.13;;;;;;;5.35;81.38;102046.31;4980695;28;20042;-87
2023/03/02 08:47:11;;;;;;;14.27;8.02;;;;;;;5.37;81.10;102059.97;4985969;28;20413;-88
2023/03/02 08:49:37;;;;;;;16.67;9.35;;;;;;;5.31;81.26;102044.63;4979675;28;20415;-86
2023/03/02 08:52:02;;;;;;;16.90;7.85;;;;;;;5.34;80.95;102060.00;4990729;28;20030;-94
2023/03/02 08:54:28;;;;;;;17.95;12.30;;;;;;;5.36;81.56;102068.53;4957648;28;20129;-82
2023/03/02 08:56:53;;;;;;;49.92;28.25;;;;;;;5.35;80.49;102058.28;4972565;28;20026;-89
2023/03/02 08:59:20;;;;;;;17.67;10.35;;;;;;;5.32;80.84;102061.72;4983021;28;20027;-84
2023/03/02 09:01:45;;;;;;;16.08;8.48;;;;;;;5.31;80.94;102051.44;4958741;28;20117;-87
2023/03/02 09:04:11;;;;;;;15.00;10.43;;;;;;;5.19;80.63;102032.69;4959662;28;20027;-85
2023/03/02 09:06:38;;;;;;;44.33;10.38;;;;;;;5.36;81.19;102060.00;4981311;28;20049;-93
2023/03/02 09:09:04;;;;;;;11.35;6.70;;;;;;;5.52;80.73;102066.75;4979830;28;20106;-87
2023/03/02 09:11:29;;;;;;;15.30;9.82;;;;;;;5.33;81.20;102045.47;4983490;28;20054;-88
2023/03/02 09:13:55;;;;;;;13.13;8.10;;;;;;;5.37;81.76;102057.41;4960393;28;20428;-83
2023/03/02 09:16:22;;;;;;;18.65;9.48;;;;;;;5.52;81.75;102068.47;4985627;28;20038;-90
2023/03/02 09:18:48;;;;;;;16.90;9.50;;;;;;;5.53;82.38;102071.03;4969321;28;20061;-95
2023/03/02 09:21:14;;;;;;;18.58;9.25;;;;;;;5.53;82.13;102059.91;4974638;28;20062;-89
2023/03/02 09:23:39;;;;;;;11.45;8.65;;;;;;;5.48;83.17;102058.22;4977812;28;20022;-88
2023/03/02 09:26:05;;;;;;;15.52;9.75;;;;;;;5.56;82.69;102059.91;4991622;28;20030;-89
2023/03/02 09:28:30;;;;;;;14.02;8.40;;;;;;;5.54;83.50;102059.06;4991336;28;20037;-89
2023/03/02 09:30:57;;;;;;;10.68;6.40;;;;;;;5.46;84.25;102048.81;4974140;28;20488;-85
2023/03/02 09:33:22;;;;;;;22.77;11.23;;;;;;;5.57;84.36;102052.19;4976702;28;20737;-83
2023/03/02 09:35:48;;;;;;;20.80;10.57;;;;;;;5.66;83.65;102052.13;5003399;28;20109;-90
2023/03/02 09:38:15;;;;;;;17.77;9.27;;;;;;;5.55;82.23;102046.22;5003166;28;20033;-95
2023/03/02 09:40:47;;;;;;;22.50;13.88;;;;;;;5.38;82.68;102046.28;4981055;28;20042;-86
2023/03/02 09:43:51;;;;;;;16.92;11.85;;;;;;;5.55;82.08;102063.31;4994483;28;20037;-92
2023/03/02 09:46:43;;;;;;;14.05;7.63;;;;;;;5.57;81.20;102061.59;5007252;28;20045;-91
2023/03/02 09:49:33;;;;;;;20.33;8.55;;;;;;;5.45;81.40;102060.81;4989906;28;20030;-83
2023/03/02 09:52:07;;;;;;;8.30;5.03;;;;;;;5.41;80.75;102061.69;4990185;28;20518;-81
2023/03/02 09:54:33;;;;;;;15.32;9.60;;;;;;;5.27;80.85;102050.63;4992197;28;20026;-83
2023/03/02 09:56:59;;;;;;;11.68;9.30;;;;;;;5.31;80.46;102054.91;4991032;28;20112;-86
2023/03/02 09:59:28;;;;;;;13.70;8.82;;;;;;;5.22;80.42;102038.69;4996235;28;20080;-89
2023/03/02 10:02:14;;;;;;;17.25;10.82;;;;;;;5.35;80.51;102053.16;4993828;28;20025;-86
2023/03/02 10:04:42;;;;;;;14.07;11.10;;;;;;;5.38;81.13;102043.72;5011620;28;20492;-87
2023/03/02 10:07:16;;;;;;;15.45;9.98;;;;;;;5.30;79.63;102039.47;4993565;28;20049;-83
2023/03/02 10:09:42;;;;;;;17.50;8.68;;;;;;;5.21;79.84;102027.56;4967659;28;20055;-83
2023/03/02 10:12:46;;;;;;;24.55;9.35;;;;;;;5.25;77.43;102049.78;4965286;28;20554;-84
2023/03/02 10:15:35;;;;;;;11.85;6.95;;;;;;;5.12;76.78;102045.56;5002399;28;20042;-92
2023/03/02 10:18:12;;;;;;;16.13;7.90;;;;;;;5.19;75.84;102044.66;5010044;28;20029;-89
2023/03/02 10:20:55;;;;;;;14.18;7.68;;;;;;;5.15;77.02;102050.66;5003953;28;20029;-85
2023/03/02 10:23:25;;;;;;;;;;;;;;;5.15;76.76;102053.25;4994605;28;20399;-93
2023/03/02 10:25:59;;;;;;;12.70;6.32;;;;;;;5.04;77.74;102044.72;5005165;28;19917;-90
2023/03/02 10:28:28;;;;;;;12.48;7.57;;;;;;;5.02;77.57;102037.03;4961242;28;20026;-85
2023/03/02 10:31:14;;;;;;;14.40;6.82;;;;;;;5.22;75.37;102052.38;4975805;28;20030;-90
2023/03/02 10:33:40;;;;;;;18.67;7.43;;;;;;;5.18;74.27;102048.09;4962879;28;20030;-88
2023/03/02 10:36:17;;;;;;;10.45;5.55;;;;;;;5.25;75.40;102060.03;4976712;28;20026;-90
2023/03/02 10:38:42;;;;;;;15.02;8.07;;;;;;;5.20;74.39;102061.75;4977417;28;20034;-94
2023/03/02 10:41:09;;;;;;;7.00;5.25;;;;;;;5.14;73.13;102036.16;4977994;28;20455;-92
2023/03/02 10:43:41;;;;;;;11.85;6.80;;;;;;;5.28;73.63;102054.88;4992133;28;20507;-90
2023/03/02 10:46:07;;;;;;;9.55;6.85;;;;;;;5.22;72.55;102049.78;4994565;28;20064;-88
2023/03/02 10:48:55;;;;;;;12.55;7.13;;;;;;;5.16;72.91;102021.59;4998364;28;20026;-93
2023/03/02 10:51:38;;;;;;;13.45;6.85;;;;;;;5.38;72.70;102056.53;4982205;28;20422;-95
2023/03/02 10:54:05;;;;;;;10.85;5.80;;;;;;;5.28;70.94;102060.00;4986484;28;20022;-94
2023/03/02 10:56:31;;;;;;;9.52;6.63;;;;;;;5.29;70.50;102053.16;4997043;28;20117;-95
2023/03/02 10:59:02;;;;;;;9.05;6.10;;;;;;;5.26;71.28;102059.19;4996389;28;20034;-92
2023/03/02 11:01:30;;;;;;;10.40;4.97;;;;;;;5.17;71.76;102029.28;4996053;28;20026;-83
2023/03/02 11:03:57;;;;;;;8.63;5.72;;;;;;;5.33;69.99;102055.72;5007174;28;20516;-88
2023/03/02 11:06:23;;;;;;;16.30;7.30;;;;;;;5.32;70.48;102046.34;4987645;28;20050;-83
2023/03/02 11:09:05;;;;;;;13.68;8.50;;;;;;;5.27;70.42;102042.91;4995599;28;20054;-91
2023/03/02 11:11:31;;;;;;;19.58;11.70;;;;;;;5.39;71.24;102058.25;4964663;28;20018;-87
2023/03/02 11:14:15;;;;;;;9.90;7.25;;;;;;;5.27;71.14;102036.94;4979602;28;20034;-87
2023/03/02 11:16:41;;;;;;;13.00;5.13;;;;;;;5.34;70.08;102051.44;4963222;28;20499;-89
2023/03/02 11:19:15;;;;;;;9.35;5.10;;;;;;;5.07;69.83;102008.81;4984884;28;20041;-88
2023/03/02 11:21:59;;;;;;;12.50;7.82;;;;;;;5.47;70.70;102061.63;4972060;28;20034;-89
2023/03/02 11:24:28;;;;;;;13.50;5.60;;;;;;;5.37;68.18;102049.72;4988087;28;20055;-88
2023/03/02 11:27:01;;;;;;;9.63;5.30;;;;;;;5.50;67.64;102050.50;4995438;28;20031;-89
2023/03/02 11:29:30;;;;;;;9.27;5.32;;;;;;;5.41;68.37;102042.88;4960056;28;20027;-91
2023/03/02 11:31:57;;;;;;;9.60;6.30;;;;;;;5.56;69.09;102054.75;4982372;28;20507;-87
2023/03/02 11:34:45;;;;;;;10.32;6.15;;;;;;;5.55;67.44;102053.91;4966560;28;20113;-89
2023/03/02 11:37:20;;;;;;;8.30;5.88;;;;;;;5.56;66.92;102054.75;4983509;28;20041;-83
2023/03/02 11:39:48;;;;;;;13.90;7.22;;;;;;;5.40;66.83;102025.75;5000053;28;20500;-90
2023/03/02 11:42:34;;;;;;;14.38;7.20;;;;;;;5.44;67.39;102033.44;4979220;28;20075;-82
2023/03/02 11:45:36;;;;;;;11.55;5.63;;;;;;;5.53;68.54;102044.50;4987575;28;20023;-86
2023/03/02 11:48:23;;;;;;;6.20;4.88;;;;;;;5.26;67.41;102005.28;4988264;28;20084;-85
2023/03/02 11:51:01;;;;;;;13.43;6.55;;;;;;;5.55;68.23;102045.34;4973398;28;20030;-85
2023/03/02 11:53:54;;;;;;;28.52;7.75;;;;;;;5.64;69.19;102047.88;4964655;28;20033;-88
2023/03/02 11:56:20;;;;;;;12.25;7.68;;;;;;;5.69;69.30;102046.97;4986736;28;20038;-87
2023/03/02 11:58:48;;;;;;;11.65;8.40;;;;;;;5.76;69.22;102032.38;4969452;28;20036;-86
2023/03/02 12:01:18;;;;;;;14.38;6.80;;;;;;;5.76;69.75;102038.38;4971133;28;20054;-86
2023/03/02 12:03:46;;;;;;;15.93;7.65;;;;;;;5.78;69.42;102040.91;4971159;28;20485;-88
2023/03/02 12:06:20;;;;;;;16.63;7.85;;;;;;;5.79;68.50;102041.78;4980043;28;20041;-94
2023/03/02 12:09:07;;;;;;;9.52;6.95;;;;;;;5.76;68.92;102034.94;4989008;28;20038;-87
2023/03/02 12:11:35;;;;;;;11.50;4.50;;;;;;;5.63;68.53;102020.50;5008507;28;20089;-85
2023/03/02 12:14:03;;;;;;;10.25;6.10;;;;;;;5.66;68.66;102036.72;4993191;28;20064;-89
2023/03/02 12:16:41;;;;;;;11.25;5.15;;;;;;;5.68;68.37;102039.28;4983604;28;20034;-90
2023/03/02 12:19:15;;;;;;;10.25;6.50;;;;;;;5.61;67.51;102042.75;4958740;28;20023;-92
2023/03/02 12:21:42;;;;;;;10.43;5.82;;;;;;;5.61;68.51;102035.06;5005755;28;20030;-85
2023/03/02 12:24:23;;;;;;;9.38;5.75;;;;;;;5.50;69.34;102024.81;5005504;28;20034;-85
2023/03/02 12:27:02;;;;;;;12.02;5.50;;;;;;;5.44;70.14;102006.91;4986943;28;20018;-86
2023/03/02 12:29:43;;;;;;;12.15;6.32;;;;;;;5.67;68.82;102038.44;5006226;28;20030;-88
2023/03/02 12:32:18;;;;;;;12.52;6.60;;;;;;;5.78;68.69;102035.78;4996180;28;20495;-93
2023/03/02 12:35:06;;;;;;;10.57;6.65;;;;;;;5.68;69.05;102029.00;5002527;28;20101;-83
2023/03/02 12:37:36;;;;;;;9.85;6.00;;;;;;;5.67;68.80;102033.28;5026879;28;20112;-85
2023/03/02 12:40:29;;;;;;;8.05;5.05;;;;;;;5.59;69.21;102029.91;5010478;28;20036;-84
2023/03/02 12:43:00;;;;;;;12.60;6.22;;;;;;;5.59;69.87;102023.91;5012286;28;20114;-86
2023/03/02 12:45:47;;;;;;;16.38;8.18;;;;;;;5.31;69.83;101985.59;5010571;28;20040;-85
2023/03/02 12:48:23;;;;;;;7.10;6.22;;;;;;;5.51;70.30;102020.56;5009801;28;20036;-84
2023/03/02 12:50:48;;;;;;;16.73;7.53;;;;;;;5.52;69.76;102027.41;5006581;28;20084;-84
2023/03/02 12:53:18;;;;;;;13.38;8.07;;;;;;;5.59;70.33;102019.63;4975356;28;20029;-90
2023/03/02 12:55:43;;;;;;;13.95;5.88;;;;;;;5.56;69.08;102019.66;4991779;28;20088;-87
2023/03/02 12:58:23;;;;;;;10.32;6.22;;;;;;;5.61;71.50;102011.97;4975340;28;20030;-90
2023/03/02 13:00:57;;;;;;;11.15;7.25;;;;;;;5.55;71.42;102004.28;4993249;28;20553;-86
2023/03/02 13:03:25;;;;;;;9.88;6.97;;;;;;;5.46;70.92;102013.72;5008551;28;20038;-92
2023/03/02 13:05:50;;;;;;;13.93;6.82;;;;;;;5.27;71.65;102007.00;4993000;28;20518;-91
2023/03/02 13:08:22;;;;;;;10.50;5.75;;;;;;;5.24;72.30;101993.34;4993515;28;20026;-91
2023/03/02 13:10:52;;;;;;;18.27;9.77;;;;;;;5.26;72.87;102000.16;5010252;28;20036;-90
2023/03/02 13:13:26;;;;;;;10.10;6.65;;;;;;;5.35;73.07;102004.41;5009977;28;20041;-93
2023/03/02 13:15:56;;;;;;;16.77;8.30;;;;;;;5.40;73.17;102006.06;4997674;28;20034;-90
2023/03/02 13:18:22;;;;;;;10.77;6.25;;;;;;;5.39;74.07;102000.94;4994510;28;20041;-91
2023/03/02 13:20:48;;;;;;;9.50;7.32;;;;;;;5.42;72.51;102001.78;4994222;28;20034;-94
2023/03/02 13:23:13;;;;;;;12.70;7.28;;;;;;;5.44;72.65;101997.50;5014236;28;20023;-92
2023/03/02 13:25:49;;;;;;;14.63;8.90;;;;;;;5.44;73.11;101994.94;4968524;28;20057;-93
2023/03/02 13:28:34;;;;;;;8.80;7.45;;;;;;;5.30;72.26;101995.84;5018319;28;20136;-88
2023/03/02 13:31:05;;;;;;;13.38;8.57;;;;;;;5.24;71.81;101993.34;5011225;28;20068;-84
2023/03/02 13:33:31;;;;;;;15.50;8.88;;;;;;;5.05;71.77;101977.19;5007388;28;20084;-87
2023/03/02 13:35:57;;;;;;;12.30;10.15;;;;;;;5.15;72.52;101982.25;5003499;28;20109;-87
2023/03/02 13:38:25;;;;;;;16.77;10.82;;;;;;;5.19;72.77;101977.94;5000165;28;20111;-91
2023/03/02 13:40:54;;;;;;;13.70;7.68;;;;;;;5.17;72.81;101979.69;5018742;28;20038;-83
2023/03/02 13:43:28;;;;;;;18.67;9.82;;;;;;;5.27;73.28;101989.03;5012786;28;20030;-93
2023/03/02 13:45:59;;;;;;;16.70;8.27;;;;;;;5.34;72.38;101992.44;5028984;28;20041;-86
2023/03/02 13:48:26;;;;;;;14.73;8.38;;;;;;;5.33;72.05;101990.72;4990726;28;20104;-88
2023/03/02 13:51:14;;;;;;;16.90;8.43;;;;;;;5.32;71.81;101986.47;5012367;28;20030;-91
2023/03/02 13:53:41;;;;;;;19.77;8.02;;;;;;;5.13;72.02;101962.63;4991756;28;20557;-89
2023/03/02 13:56:06;;;;;;;11.32;8.38;;;;;;;5.29;72.86;101978.75;5010881;28;20030;-90
2023/03/02 13:58:32;;;;;;;21.90;8.88;;;;;;;5.34;72.46;101972.75;5012631;28;20810;-87
2023/03/02 14:00:58;;;;;;;14.18;8.82;;;;;;;5.24;71.76;101963.41;4990848;28;20022;-85
2023/03/02 14:03:26;;;;;;;14.35;10.18;;;;;;;5.22;71.85;101970.25;5008750;28;20541;-87
2023/03/02 14:05:52;;;;;;;12.98;7.93;;;;;;;5.21;72.48;101960.88;4992301;28;20426;-86
2023/03/02 14:08:18;;;;;;;16.23;12.23;;;;;;;5.14;73.41;101951.47;5007611;28;20112;-89
2023/03/02 14:10:43;;;;;;;20.00;12.45;;;;;;;5.26;72.54;101959.09;5009044;28;20040;-87
2023/03/02 14:13:12;;;;;;;12.07;8.07;;;;;;;5.08;73.53;101959.19;4978225;28;20038;-84
2023/03/02 14:15:40;;;;;;;13.18;7.97;;;;;;;5.22;73.05;101965.13;4980612;28;20018;-94
2023/03/02 14:18:24;;;;;;;25.10;12.23;;;;;;;5.10;73.76;101955.75;4979312;28;20038;-91
2023/03/02 14:20:49;;;;;;;19.95;10.30;;;;;;;5.16;74.45;101962.59;4997355;28;20034;-93
2023/03/02 14:23:15;;;;;;;17.08;10.05;;;;;;;5.24;73.98;101960.84;4993702;28;20037;-89
2023/03/02 14:25:40;;;;;;;17.42;10.27;;;;;;;5.23;74.80;101959.13;4960028;28;20050;-85
2023/03/02 14:28:09;;;;;;;20.08;11.05;;;;;;;5.31;74.48;101961.63;5004674;28;20022;-85
2023/03/02 14:30:35;;;;;;;16.40;9.55;;;;;;;5.23;74.27;101933.47;5024740;28;20052;-86
2023/03/02 14:33:00;;;;;;;19.08;10.13;;;;;;;5.39;74.47;101945.31;4992128;28;20349;-86
2023/03/02 14:35:25;;;;;;;19.17;10.73;;;;;;;5.39;73.71;101955.59;5009981;28;20026;-84
2023/03/02 14:37:51;;;;;;;16.20;9.60;;;;;;;5.40;74.30;101944.47;5010433;28;20052;-85
2023/03/02 14:40:22;;;;;;;16.70;9.90;;;;;;;5.40;73.86;101952.16;5029507;28;20387;-84
2023/03/02 14:42:47;;;;;;;15.95;9.88;;;;;;;5.33;74.14;101944.53;5030497;28;20026;-85
2023/03/02 14:45:13;;;;;;;14.82;9.40;;;;;;;5.39;75.39;101945.31;5015110;28;20045;-84
2023/03/02 14:47:38;;;;;;;14.63;9.60;;;;;;;5.30;75.10;101930.00;5011877;28;20545;-91
2023/03/02 14:50:04;;;;;;;13.52;9.80;;;;;;;5.33;75.50;101929.13;4995685;28;20021;-91
2023/03/02 14:52:53;;;;;;;23.90;13.77;;;;;;;5.28;74.96;101926.59;5011874;28;20033;-85
2023/03/02 14:55:24;;;;;;;18.08;11.15;;;;;;;5.26;74.77;101923.19;4991963;28;20425;-85
2023/03/02 14:58:03;;;;;;;28.63;9.73;;;;;;;5.39;74.58;101937.63;4979811;28;20026;-83
2023/03/02 15:00:29;;;;;;;18.42;8.18;;;;;;;5.33;75.02;101941.97;4995626;28;20026;-82
2023/03/02 15:02:54;;;;;;;28.17;10.70;;;;;;;5.31;75.18;101923.13;4979232;28;20100;-81
2023/03/02 15:05:20;;;;;;;16.25;9.48;;;;;;;5.38;74.84;101938.50;5011453;28;20037;-82
2023/03/02 15:07:45;;;;;;;26.02;12.55;;;;;;;5.27;74.91;101908.63;4995306;28;20092;-82
2023/03/02 15:10:16;;;;;;;11.80;8.90;;;;;;;5.36;75.86;101932.53;5011365;28;20412;-85
2023/03/02 15:12:41;;;;;;;21.45;10.85;;;;;;;5.50;75.30;101946.97;4995138;28;20029;-83
2023/03/02 15:15:07;;;;;;;18.45;11.05;;;;;;;5.28;75.60;101921.47;4995274;28;20030;-83
2023/03/02 15:17:33;;;;;;;15.50;9.55;;;;;;;5.35;75.68;101927.41;4978799;28;20030;-82
2023/03/02 15:19:58;;;;;;;20.45;10.18;;;;;;;5.48;75.59;101940.13;4978432;28;20080;-82
2023/03/02 15:22:24;;;;;;;12.65;8.30;;;;;;;5.50;75.30;101941.84;4978854;28;20034;-84
2023/03/02 15:24:49;;;;;;;16.38;10.10;;;;;;;5.52;74.86;101940.13;4995386;28;20526;-83
2023/03/02 15:27:15;;;;;;;18.63;10.38;;;;;;;5.43;74.97;101923.94;4995288;28;20491;-83
2023/03/02 15:29:44;;;;;;;21.40;11.93;;;;;;;5.09;74.86;101887.38;5011274;28;20030;-83
2023/03/02 15:32:10;;;;;;;14.77;9.02;;;;;;;5.40;75.89;101936.75;5011101;28;20120;-84
2023/03/02 15:34:35;;;;;;;12.93;9.65;;;;;;;5.42;75.48;101935.06;4978377;28;20113;-82
2023/03/02 15:37:01;;;;;;;18.50;10.40;;;;;;;5.34;75.84;101921.44;4994550;28;20038;-83
2023/03/02 15:39:26;;;;;;;15.05;8.57;;;;;;;5.39;75.29;101935.06;5013139;28;20022;-83
2023/03/02 15:41:52;;;;;;;17.38;8.75;;;;;;;5.38;74.80;101924.81;5010975;28;20112;-83
2023/03/02 15:44:20;;;;;;;16.67;9.63;;;;;;;5.19;75.72;101929.22;4994911;28;20511;-83
2023/03/02 15:46:47;;;;;;;26.27;12.02;;;;;;;5.13;76.15;101924.13;4994695;28;20026;-83
2023/03/02 15:49:13;;;;;;;27.35;14.35;;;;;;;5.21;75.86;101935.22;5010839;28;20030;-83
2023/03/02 15:51:38;;;;;;;21.25;10.63;;;;;;;5.21;76.35;101927.50;4993547;28;20026;-83
2023/03/02 15:54:05;;;;;;;19.90;10.88;;;;;;;5.10;76.94;101916.44;4994975;28;20483;-83
2023/03/02 15:56:31;;;;;;;32.35;13.70;;;;;;;5.18;77.29;101930.06;5010978;28;20124;-82
2023/03/02 15:58:56;;;;;;;23.48;10.50;;;;;;;5.27;77.63;101934.31;5010782;28;20061;-83
2023/03/02 16:01:22;;;;;;;21.10;13.73;;;;;;;5.24;77.66;101940.31;4994397;28;20053;-83
2023/03/02 16:03:47;;;;;;;19.20;9.93;;;;;;;5.25;77.81;101936.03;5010400;28;20038;-83
2023/03/02 16:06:14;;;;;;;17.00;9.27;;;;;;;5.14;77.49;101930.97;5010740;28;20057;-83
2023/03/02 16:08:40;;;;;;;15.75;8.95;;;;;;;5.16;78.46;101932.66;5010629;28;20069;-83
2023/03/02 16:11:06;;;;;;;18.70;10.32;;;;;;;5.02;78.40;101924.19;4977914;28;20029;-83
2023/03/02 16:13:31;;;;;;;24.27;10.20;;;;;;;5.01;78.74;101919.03;4978051;28;20495;-82
2023/03/02 16:16:01;;;;;;;11.90;9.02;;;;;;;4.95;79.03;101916.53;5010436;28;20030;-82
2023/03/02 16:18:26;;;;;;;13.60;7.78;;;;;;;5.05;79.20;101938.72;4993872;28;20495;-83
2023/03/02 16:20:52;;;;;;;17.52;9.18;;;;;;;5.09;79.43;101941.22;4993992;28;20026;-83
2023/03/02 16:23:17;;;;;;;12.13;8.95;;;;;;;5.06;79.09;101930.16;4977806;28;20033;-83
2023/03/02 16:25:43;;;;;;;13.73;9.18;;;;;;;5.08;79.56;101948.94;4993882;28;20502;-83
2023/03/02 16:28:09;;;;;;;14.65;9.93;;;;;;;4.89;79.89;101917.41;4977485;28;20032;-83
2023/03/02 16:30:35;;;;;;;12.82;7.97;;;;;;;5.19;79.61;101945.44;5010396;28;20038;-82
2023/03/02 16:33:02;;;;;;;15.27;10.98;;;;;;;5.07;79.03;101940.41;4977388;28;20033;-83
2023/03/02 16:35:28;;;;;;;15.32;6.75;;;;;;;4.90;79.26;101925.06;4977731;28;20054;-83
2023/03/02 16:37:54;;;;;;;20.77;11.73;;;;;;;5.03;79.27;101945.56;4993764;28;20492;-83
2023/03/02 16:40:19;;;;;;;22.23;10.30;;;;;;;5.01;79.71;101948.09;5010365;28;20105;-83